Time;durP1;ratioP1;P1;durP2;ratioP2;P2;SDS_P1;SDS_P2;PMS_P1;PMS_P2;Temp;Humidity;BMP_temperature;BMP_pressure;BME280_temperature;BME280_humidity;BME280_pressure;Samples;Min_cycle;Max_cycle;Signal;HPM_P1;HPM_P2
2022/11/17 00:00:21;;;;;;;3.73;1.30;;;12.10;99.90;;;;;;5023750;28;20488;-82
2022/11/17 00:02:48;;;;;;;3.60;1.50;;;12.10;99.90;;;;;;5003936;28;20648;-82
2022/11/17 00:05:15;;;;;;;5.07;1.67;;;12.20;99.90;;;;;;5015266;28;20533;-83
2022/11/17 00:07:44;;;;;;;4.33;2.00;;;12.10;99.90;;;;;;5023679;28;20443;-82
2022/11/17 00:10:12;;;;;;;7.13;1.90;;;12.00;99.90;;;;;;5015535;28;20998;-82
2022/11/17 00:15:23;;;;;;;2.63;1.30;;;12.00;99.90;;;;;;5016496;28;20438;-82
2022/11/17 00:21:17;;;;;;;4.43;1.50;;;12.00;99.90;;;;;;5025484;28;21060;-82
2022/11/17 00:23:23;;;;;;;5.30;1.60;;;12.00;99.90;;;;;;5008644;28;20512;-82
2022/11/17 00:25:50;;;;;;;2.97;1.37;;;11.90;99.90;;;;;;5016055;28;20474;-82
2022/11/17 00:28:17;;;;;;;3.63;1.67;;;11.70;99.90;;;;;;5006797;28;20487;-82
2022/11/17 00:36:15;;;;;;;5.70;1.60;;;11.50;99.90;;;;;;5012510;28;20446;-81
2022/11/17 00:38:43;;;;;;;2.70;1.40;;;11.50;99.90;;;;;;5002278;28;20454;-80
2022/11/17 00:41:10;;;;;;;6.20;1.53;;;11.40;99.90;;;;;;5016633;28;20458;-81
2022/11/17 00:43:37;;;;;;;2.73;1.50;;;11.40;99.90;;;;;;5019738;28;20473;-81
2022/11/17 00:46:04;;;;;;;7.00;1.83;;;11.30;99.90;;;;;;5026075;28;20536;-82
2022/11/17 00:48:31;;;;;;;5.20;1.40;;;11.30;99.90;;;;;;5018346;28;20521;-80
2022/11/17 00:50:57;;;;;;;5.23;1.90;;;11.30;99.90;;;;;;5008685;28;20938;-81
2022/11/17 00:53:24;;;;;;;3.93;1.50;;;11.20;99.90;;;;;;5015976;28;20532;-81
2022/11/17 00:55:52;;;;;;;3.30;1.33;;;11.30;99.90;;;;;;5025496;28;20904;-81
2022/11/17 00:58:19;;;;;;;4.00;2.00;;;11.30;99.90;;;;;;5018066;28;20470;-80
2022/11/17 01:00:48;;;;;;;2.83;1.53;;;11.30;99.90;;;;;;5005706;28;20482;-81
2022/11/17 01:03:15;;;;;;;3.90;1.60;;;11.30;99.90;;;;;;5011553;28;20558;-82
2022/11/17 01:05:42;;;;;;;4.53;1.43;;;11.20;99.90;;;;;;5022258;28;20536;-81
2022/11/17 01:08:08;;;;;;;7.37;2.80;;;11.30;99.90;;;;;;5018456;28;20608;-81
2022/11/17 01:10:35;;;;;;;7.63;1.80;;;11.20;99.90;;;;;;5006312;28;20466;-81
2022/11/17 01:13:03;;;;;;;7.70;2.00;;;11.30;99.90;;;;;;5008740;28;20499;-82
2022/11/17 01:15:30;;;;;;;3.63;1.90;;;11.30;99.90;;;;;;5005501;28;20482;-81
2022/11/17 01:17:57;;;;;;;3.70;1.50;;;11.30;99.90;;;;;;5008832;28;20469;-82
2022/11/17 01:20:24;;;;;;;3.83;1.40;;;11.30;99.90;;;;;;5025003;28;20907;-79
2022/11/17 01:22:53;;;;;;;3.73;1.80;;;11.40;99.90;;;;;;5021064;28;20493;-83
2022/11/17 01:25:20;;;;;;;2.30;1.60;;;11.40;99.90;;;;;;5001514;28;20453;-80
2022/11/17 01:27:50;;;;;;;3.00;1.57;;;11.30;99.90;;;;;;5001820;28;20454;-80
2022/11/17 01:30:19;;;;;;;4.13;1.50;;;11.30;99.90;;;;;;5016413;28;20475;-81
2022/11/17 01:32:46;;;;;;;4.33;1.90;;;11.30;99.90;;;;;;5016915;28;20854;-81
2022/11/17 01:35:13;;;;;;;3.20;1.50;;;11.20;99.90;;;;;;5000722;28;20453;-81
2022/11/17 01:37:39;;;;;;;3.17;1.80;;;11.20;99.90;;;;;;5011393;28;20463;-82
2022/11/17 01:40:09;;;;;;;4.50;1.80;;;11.10;99.90;;;;;;5013196;28;20915;-81
2022/11/17 01:42:36;;;;;;;3.20;2.17;;;11.10;99.90;;;;;;5003041;28;20490;-80
2022/11/17 01:45:05;;;;;;;4.77;2.10;;;11.00;99.90;;;;;;4996255;28;20534;-81
2022/11/17 01:47:38;;;;;;;5.80;2.30;;;11.00;99.90;;;;;;5003623;28;20447;-80
2022/11/17 01:50:12;;;;;;;3.97;1.47;;;11.00;99.90;;;;;;5014699;28;20489;-80
2022/11/17 01:52:39;;;;;;;4.17;1.80;;;11.00;99.90;;;;;;5005557;28;20517;-80
2022/11/17 01:55:08;;;;;;;9.23;2.43;;;10.90;99.90;;;;;;5016105;28;20448;-80
2022/11/17 01:57:41;;;;;;;5.23;2.43;;;10.90;99.90;;;;;;5012404;28;20450;-80
2022/11/17 02:00:11;;;;;;;3.13;1.60;;;10.80;99.90;;;;;;5008334;28;20470;-80
2022/11/17 02:02:43;;;;;;;4.30;2.10;;;10.80;99.90;;;;;;4998787;28;20511;-80
2022/11/17 02:05:20;;;;;;;5.40;2.10;;;10.80;99.90;;;;;;5000801;28;20824;-80
2022/11/17 02:07:49;;;;;;;2.40;1.60;;;10.80;99.90;;;;;;5000086;28;20460;-81
2022/11/17 02:10:16;;;;;;;4.40;1.70;;;10.80;99.90;;;;;;4999269;28;20845;-81
2022/11/17 02:12:45;;;;;;;4.50;1.57;;;10.80;99.90;;;;;;4998745;28;20527;-81
2022/11/17 02:15:12;;;;;;;5.50;1.80;;;10.70;99.90;;;;;;5008762;28;20480;-81
2022/11/17 02:17:42;;;;;;;3.80;1.80;;;10.70;99.90;;;;;;5020676;28;20450;-81
2022/11/17 02:20:13;;;;;;;4.63;1.70;;;10.70;99.90;;;;;;5009043;28;20572;-79
2022/11/17 02:23:07;;;;;;;5.13;1.93;;;10.70;99.90;;;;;;4999246;28;20572;-79
2022/11/17 02:25:59;;;;;;;2.60;1.67;;;10.70;99.90;;;;;;5005473;28;20545;-79
2022/11/17 02:28:29;;;;;;;2.90;1.60;;;10.70;99.90;;;;;;5010761;28;21037;-79
2022/11/17 02:31:07;;;;;;;3.40;1.70;;;10.60;99.90;;;;;;4996058;28;20553;-80
2022/11/17 02:33:45;;;;;;;3.23;1.30;;;10.60;99.90;;;;;;5001844;28;20524;-79
2022/11/17 02:36:17;;;;;;;4.17;1.73;;;10.60;99.90;;;;;;5022795;28;20445;-79
2022/11/17 02:38:53;;;;;;;4.00;1.30;;;10.60;99.90;;;;;;5019042;28;20458;-79
2022/11/17 02:41:25;;;;;;;4.30;1.50;;;10.60;99.90;;;;;;5000150;28;20987;-81
2022/11/17 02:44:03;;;;;;;4.10;1.40;;;10.60;99.90;;;;;;5012926;28;20486;-80
2022/11/17 02:46:39;;;;;;;3.57;1.50;;;10.60;99.90;;;;;;4995630;28;20434;-80
2022/11/17 02:49:12;;;;;;;4.63;1.80;;;10.60;99.90;;;;;;5008183;28;20455;-79
2022/11/17 02:51:40;;;;;;;2.20;1.50;;;10.60;99.90;;;;;;5015673;28;20448;-80
2022/11/17 02:54:08;;;;;;;3.33;1.53;;;10.60;99.90;;;;;;5011667;28;20464;-78
2022/11/17 02:56:39;;;;;;;2.77;1.63;;;10.60;99.90;;;;;;4995325;28;20514;-78
2022/11/17 02:59:07;;;;;;;2.93;1.90;;;10.60;99.90;;;;;;4998190;28;20551;-80
2022/11/17 03:02:07;;;;;;;2.77;1.50;;;10.60;99.90;;;;;;5016362;28;20456;-79
2022/11/17 03:04:45;;;;;;;2.33;1.13;;;10.60;99.90;;;;;;5012424;28;20467;-80
2022/11/17 03:07:25;;;;;;;3.67;1.67;;;10.60;99.90;;;;;;5016470;28;20453;-80
2022/11/17 03:10:02;;;;;;;2.20;1.33;;;10.60;99.90;;;;;;5005243;28;20480;-80
2022/11/17 03:12:35;;;;;;;1.90;1.30;;;10.60;99.90;;;;;;5012554;28;20463;-81
2022/11/17 03:15:12;;;;;;;2.40;1.23;;;10.60;99.90;;;;;;5004006;28;20461;-81
2022/11/17 03:17:47;;;;;;;2.77;1.83;;;10.60;99.90;;;;;;4997348;28;20457;-81
2022/11/17 03:20:19;;;;;;;2.93;1.33;;;10.60;99.90;;;;;;4995604;28;20520;-80
2022/11/17 03:22:53;;;;;;;3.10;1.20;;;10.60;99.90;;;;;;4996270;28;20579;-81
2022/11/17 03:25:22;;;;;;;3.97;1.73;;;10.60;99.90;;;;;;5007548;28;20453;-81
2022/11/17 03:27:53;;;;;;;2.33;1.10;;;10.60;99.90;;;;;;5008874;28;20473;-83
2022/11/17 03:30:23;;;;;;;4.23;1.40;;;10.60;99.90;;;;;;4996102;28;20834;-80
2022/11/17 03:32:54;;;;;;;5.17;1.40;;;10.60;99.90;;;;;;5000020;28;20552;-80
2022/11/17 03:35:25;;;;;;;2.40;1.10;;;10.60;99.90;;;;;;5015582;28;20456;-82
2022/11/17 03:37:57;;;;;;;2.73;1.20;;;10.60;99.90;;;;;;5008225;28;20517;-82
2022/11/17 03:40:27;;;;;;;2.23;1.20;;;10.60;99.90;;;;;;4995587;28;20488;-80
2022/11/17 03:42:58;;;;;;;3.03;1.10;;;10.60;99.90;;;;;;4998516;28;20485;-80
2022/11/17 03:45:29;;;;;;;2.53;1.47;;;10.60;99.90;;;;;;4998874;28;20468;-78
2022/11/17 03:48:00;;;;;;;2.20;1.17;;;10.60;99.90;;;;;;5003517;28;20457;-80
2022/11/17 03:50:33;;;;;;;2.20;1.10;;;10.60;99.90;;;;;;5016278;28;20486;-80
2022/11/17 03:53:01;;;;;;;4.83;1.20;;;10.60;99.90;;;;;;5012262;28;20457;-80
2022/11/17 03:55:33;;;;;;;1.83;1.17;;;10.60;99.90;;;;;;5002166;28;20515;-79
2022/11/17 03:58:05;;;;;;;3.97;1.20;;;10.60;99.90;;;;;;5017793;28;20454;-80
2022/11/17 04:00:36;;;;;;;3.63;1.30;;;10.60;99.90;;;;;;5000724;28;20483;-80
2022/11/17 04:03:02;;;;;;;3.57;0.90;;;10.60;99.90;;;;;;4998091;28;20521;-80
2022/11/17 04:05:29;;;;;;;2.33;1.13;;;10.60;99.90;;;;;;5014604;28;20979;-80
2022/11/17 04:07:56;;;;;;;3.83;1.20;;;10.60;99.90;;;;;;5016280;28;20459;-78
2022/11/17 04:10:25;;;;;;;3.20;1.13;;;10.60;99.90;;;;;;5017212;28;20575;-79
2022/11/17 04:15:58;;;;;;;1.50;1.00;;;10.60;99.90;;;;;;5000387;28;20449;-82
2022/11/17 04:18:25;;;;;;;2.20;1.10;;;10.50;99.90;;;;;;4998024;28;20462;-80
2022/11/17 04:20:54;;;;;;;2.13;1.00;;;10.60;99.90;;;;;;5015254;28;20476;-80
2022/11/17 04:23:21;;;;;;;2.93;1.10;;;10.50;99.90;;;;;;5013832;28;20477;-79
2022/11/17 04:28:36;;;;;;;1.70;0.77;;;10.50;99.90;;;;;;5001364;28;20529;-80
2022/11/17 04:31:06;;;;;;;2.57;0.83;;;10.60;99.90;;;;;;5010555;28;20851;-80
2022/11/17 04:33:34;;;;;;;2.37;1.10;;;10.50;99.90;;;;;;5000493;28;20980;-80
2022/11/17 04:36:01;;;;;;;3.80;1.10;;;10.60;99.90;;;;;;5017120;28;20456;-81
2022/11/17 04:38:28;;;;;;;6.13;1.17;;;10.50;99.90;;;;;;5014770;28;20453;-81
2022/11/17 04:43:46;;;;;;;3.10;1.20;;;10.60;99.90;;;;;;4999016;28;20479;-80
2022/11/17 04:46:15;;;;;;;2.47;1.03;;;10.50;99.90;;;;;;5009427;28;20510;-80
2022/11/17 04:48:42;;;;;;;1.93;1.00;;;10.50;99.90;;;;;;4998188;28;20458;-81
2022/11/17 04:51:09;;;;;;;2.20;0.97;;;10.50;99.90;;;;;;4998341;28;21090;-80
2022/11/17 04:53:36;;;;;;;3.63;1.20;;;10.50;99.90;;;;;;4997940;28;20460;-80
2022/11/17 04:56:03;;;;;;;2.20;1.00;;;10.50;99.90;;;;;;5017506;28;20463;-81
2022/11/17 04:58:30;;;;;;;1.80;0.80;;;10.50;99.90;;;;;;5014347;28;20894;-80
2022/11/17 05:01:11;;;;;;;2.20;1.07;;;10.50;99.90;;;;;;5017560;28;20505;-81
2022/11/17 05:03:42;;;;;;;2.10;1.10;;;10.50;99.90;;;;;;5016374;28;20543;-81
2022/11/17 05:06:10;;;;;;;2.70;1.30;;;10.50;99.90;;;;;;5017112;28;20454;-81
2022/11/17 05:08:37;;;;;;;2.03;1.00;;;10.60;99.90;;;;;;5015199;28;20490;-82
2022/11/17 05:13:50;;;;;;;5.03;1.20;;;10.60;99.90;;;;;;4999510;28;20457;-83
2022/11/17 05:19:03;;;;;;;2.00;1.00;;;10.60;99.90;;;;;;5013763;28;20513;-83
2022/11/17 05:21:30;;;;;;;1.67;1.07;;;10.60;99.90;;;;;;5007768;28;21116;-81
2022/11/17 05:23:56;;;;;;;3.10;1.30;;;10.60;99.90;;;;;;5006570;28;20556;-80
2022/11/17 05:26:24;;;;;;;4.63;1.17;;;10.50;99.90;;;;;;5016109;28;20448;-81
2022/11/17 05:28:52;;;;;;;2.30;1.30;;;10.50;99.90;;;;;;5015825;28;20905;-81
2022/11/17 05:31:19;;;;;;;7.90;1.00;;;10.50;99.90;;;;;;4996123;28;20482;-81
2022/11/17 05:33:46;;;;;;;3.50;1.17;;;10.40;99.90;;;;;;4998472;28;20991;-82
2022/11/17 05:36:15;;;;;;;3.20;1.13;;;10.50;99.90;;;;;;5015718;28;20842;-82
2022/11/17 05:38:41;;;;;;;2.67;1.57;;;10.50;99.90;;;;;;5016533;28;20468;-82
2022/11/17 05:41:08;;;;;;;3.63;1.80;;;10.50;99.90;;;;;;4998652;28;20483;-81
2022/11/17 05:43:35;;;;;;;3.00;1.20;;;10.50;99.90;;;;;;4996574;28;20485;-82
2022/11/17 05:46:02;;;;;;;2.10;1.30;;;10.50;99.90;;;;;;5014174;28;20545;-82
2022/11/17 05:48:29;;;;;;;2.43;1.10;;;10.60;99.90;;;;;;5016254;28;20549;-81
2022/11/17 05:50:56;;;;;;;2.30;1.53;;;10.60;99.90;;;;;;5089248;22;20532;-82
2022/11/17 05:53:25;;;;;;;2.50;1.40;;;10.70;99.90;;;;;;5095563;28;20456;-82
2022/11/17 05:56:08;;;;;;;6.03;1.50;;;10.70;99.90;;;;;;5095997;28;20549;-83
2022/11/17 05:58:36;;;;;;;2.50;1.43;;;10.70;99.90;;;;;;5095247;28;20457;-83
2022/11/17 06:01:04;;;;;;;2.63;1.30;;;10.80;99.90;;;;;;5108794;28;20475;-85
2022/11/17 06:03:36;;;;;;;3.43;1.83;;;10.80;99.90;;;;;;5106035;28;20610;-85
2022/11/17 06:06:05;;;;;;;2.57;1.27;;;10.80;99.90;;;;;;5097948;28;20525;-84
2022/11/17 06:08:33;;;;;;;3.03;1.73;;;10.80;99.90;;;;;;5104353;28;20453;-83
2022/11/17 06:11:01;;;;;;;3.83;1.33;;;10.80;99.90;;;;;;5120818;28;20465;-84
2022/11/17 06:13:28;;;;;;;5.60;1.43;;;10.80;99.90;;;;;;5113485;28;20453;-85
2022/11/17 06:15:56;;;;;;;3.50;1.87;;;10.80;99.90;;;;;;5115182;28;20499;-83
2022/11/17 06:18:27;;;;;;;4.70;1.60;;;10.80;99.90;;;;;;5128165;28;20983;-85
2022/11/17 06:20:55;;;;;;;2.93;1.20;;;10.80;99.90;;;;;;5111782;28;20577;-85
2022/11/17 06:23:25;;;;;;;5.73;1.70;;;10.80;99.90;;;;;;5099655;28;20567;-84
2022/11/17 06:25:53;;;;;;;5.65;2.10;;;10.80;99.90;;;;;;5081637;28;20786;-82
2022/11/17 06:28:22;;;;;;;3.87;1.53;;;10.80;99.90;;;;;;5090240;28;20207;-84
2022/11/17 06:30:49;;;;;;;3.83;1.77;;;10.90;99.90;;;;;;5107637;28;20905;-83
2022/11/17 06:33:19;;;;;;;3.40;1.40;;;10.90;99.90;;;;;;5091035;28;20530;-84
2022/11/17 06:35:47;;;;;;;10.50;2.10;;;10.80;99.90;;;;;;5084796;28;20461;-83
2022/11/17 06:38:14;;;;;;;2.63;1.40;;;10.80;99.90;;;;;;5091295;28;20549;-84
2022/11/17 06:40:41;;;;;;;5.60;2.50;;;10.90;99.90;;;;;;5078758;28;20481;-83
2022/11/17 06:43:09;;;;;;;6.27;1.97;;;10.90;99.90;;;;;;5101085;28;20480;-84
2022/11/17 06:45:38;;;;;;;2.70;1.60;;;10.80;99.90;;;;;;5095897;28;20479;-82
2022/11/17 06:48:05;;;;;;;5.17;1.97;;;10.80;99.90;;;;;;5102324;28;20640;-83
2022/11/17 06:50:33;;;;;;;3.23;1.70;;;10.80;99.90;;;;;;5090100;28;20588;-79
2022/11/17 06:53:01;;;;;;;5.27;2.47;;;10.80;99.90;;;;;;5091344;28;20524;-81
2022/11/17 06:55:28;;;;;;;5.90;2.47;;;10.80;99.90;;;;;;5077355;28;20851;-80
2022/11/17 06:57:59;;;;;;;5.40;2.50;;;10.80;99.90;;;;;;5094083;28;20465;-82
2022/11/17 07:00:27;;;;;;;5.43;1.70;;;10.80;99.90;;;;;;5074703;28;20468;-81
2022/11/17 07:02:59;;;;;;;3.00;1.80;;;10.80;99.90;;;;;;5098585;28;20477;-83
2022/11/17 07:05:26;;;;;;;7.03;1.90;;;10.80;99.90;;;;;;5105188;28;20446;-82
2022/11/17 07:07:57;;;;;;;3.30;1.47;;;10.80;99.90;;;;;;5103743;28;20446;-82
2022/11/17 07:10:24;;;;;;;3.20;1.23;;;10.90;99.90;;;;;;5103568;28;20497;-83
2022/11/17 07:12:50;;;;;;;3.17;1.50;;;10.80;99.90;;;;;;5104497;28;20473;-83
2022/11/17 07:15:17;;;;;;;3.50;1.47;;;10.80;99.90;;;;;;5105555;28;20439;-83
2022/11/17 07:17:46;;;;;;;4.67;1.73;;;10.80;99.90;;;;;;5126834;28;20451;-83
2022/11/17 07:20:13;;;;;;;3.50;1.50;;;10.80;99.90;;;;;;5125083;28;21021;-83
2022/11/17 07:22:41;;;;;;;6.03;1.70;;;10.90;99.90;;;;;;5118698;28;20457;-83
2022/11/17 07:25:08;;;;;;;3.37;1.80;;;10.90;99.90;;;;;;5121570;28;20487;-83
2022/11/17 07:27:35;;;;;;;3.97;1.73;;;10.80;99.90;;;;;;5122985;28;20822;-83
2022/11/17 07:30:02;;;;;;;2.80;1.50;;;10.90;99.90;;;;;;5114666;28;20456;-82
2022/11/17 07:32:30;;;;;;;2.27;1.27;;;10.80;99.90;;;;;;5106042;28;20447;-82
2022/11/17 07:34:58;;;;;;;2.90;1.50;;;10.90;99.90;;;;;;5119706;28;20449;-83
2022/11/17 07:37:25;;;;;;;4.03;1.47;;;10.80;99.90;;;;;;5109910;28;20465;-83
2022/11/17 07:39:52;;;;;;;1.93;1.17;;;10.80;99.90;;;;;;5105008;28;20460;-83
2022/11/17 07:42:19;;;;;;;2.90;1.40;;;10.80;99.90;;;;;;5105746;28;21057;-82
2022/11/17 07:44:46;;;;;;;2.40;1.40;;;10.80;99.90;;;;;;5092814;28;20491;-82
2022/11/17 07:47:13;;;;;;;3.40;1.43;;;10.80;99.90;;;;;;5098143;28;20551;-82
2022/11/17 07:49:39;;;;;;;4.10;1.40;;;10.80;99.90;;;;;;5089833;28;20452;-82
2022/11/17 07:52:08;;;;;;;2.60;1.33;;;10.90;99.90;;;;;;5097806;28;20486;-83
2022/11/17 07:54:34;;;;;;;4.00;1.50;;;10.90;99.90;;;;;;5097608;28;20536;-83
2022/11/17 07:57:01;;;;;;;4.00;1.50;;;10.90;99.90;;;;;;5094346;28;20528;-83
2022/11/17 07:59:28;;;;;;;3.53;1.37;;;10.90;99.90;;;;;;5091013;28;20544;-82
2022/11/17 08:01:55;;;;;;;2.30;1.10;;;10.90;99.90;;;;;;5097878;28;20821;-82
2022/11/17 08:04:22;;;;;;;3.20;1.00;;;11.00;99.90;;;;;;5099317;28;20492;-84
2022/11/17 08:06:48;;;;;;;3.00;1.23;;;11.00;99.90;;;;;;5107807;28;20455;-81
2022/11/17 08:09:17;;;;;;;2.93;1.10;;;11.10;99.90;;;;;;5087972;28;20815;-81
2022/11/17 08:11:44;;;;;;;2.40;1.10;;;11.10;99.90;;;;;;5099555;28;20477;-81
2022/11/17 08:14:10;;;;;;;7.13;1.50;;;11.20;99.90;;;;;;5112434;28;20451;-81
2022/11/17 08:16:37;;;;;;;2.90;1.07;;;11.10;99.90;;;;;;5119976;28;20488;-82
2022/11/17 08:19:05;;;;;;;2.33;1.00;;;11.10;99.90;;;;;;5111616;28;20900;-81
2022/11/17 08:21:32;;;;;;;2.63;1.10;;;11.10;99.90;;;;;;5102356;28;20556;-82
2022/11/17 08:23:59;;;;;;;2.57;1.00;;;11.10;99.90;;;;;;5101072;28;20549;-82
2022/11/17 08:26:27;;;;;;;2.83;1.27;;;11.20;99.90;;;;;;5137484;28;20436;-81
2022/11/17 08:28:55;;;;;;;3.40;1.30;;;11.20;99.90;;;;;;5124876;28;20543;-82
2022/11/17 08:31:22;;;;;;;2.93;1.57;;;11.20;99.90;;;;;;5100849;28;20470;-82
2022/11/17 08:33:49;;;;;;;2.23;1.40;;;11.20;99.90;;;;;;5110192;28;20503;-81
2022/11/17 08:36:16;;;;;;;4.60;1.27;;;11.20;99.90;;;;;;5116877;28;20952;-81
2022/11/17 08:38:43;;;;;;;3.70;1.50;;;11.20;99.90;;;;;;5100542;28;20536;-80
2022/11/17 08:41:13;;;;;;;6.10;1.67;;;11.20;99.90;;;;;;5110619;28;20533;-82
2022/11/17 08:43:41;;;;;;;3.10;1.23;;;11.10;99.90;;;;;;5097610;28;20588;-81
2022/11/17 08:46:11;;;;;;;6.80;1.90;;;11.00;99.90;;;;;;5097057;28;20454;-80
2022/11/17 08:48:38;;;;;;;5.20;1.30;;;11.00;99.90;;;;;;5096408;28;20454;-81
2022/11/17 08:51:06;;;;;;;2.30;1.23;;;11.00;99.90;;;;;;5096292;28;20481;-81
2022/11/17 08:53:33;;;;;;;2.53;1.27;;;11.10;99.90;;;;;;5096852;28;20526;-81
2022/11/17 08:56:00;;;;;;;3.53;1.27;;;11.00;99.90;;;;;;5096538;28;20451;-81
2022/11/17 08:58:27;;;;;;;2.37;1.10;;;11.00;99.90;;;;;;5096002;28;21023;-82
2022/11/17 09:00:55;;;;;;;2.70;1.20;;;11.10;99.90;;;;;;5097320;28;20507;-82
2022/11/17 09:03:22;;;;;;;3.63;1.30;;;11.10;99.90;;;;;;5107511;28;20842;-81
2022/11/17 09:05:49;;;;;;;3.43;1.30;;;11.20;99.90;;;;;;5097376;28;20510;-81
2022/11/17 09:08:17;;;;;;;2.63;1.03;;;11.10;99.90;;;;;;5103407;28;20454;-81
2022/11/17 09:10:48;;;;;;;2.33;1.17;;;11.20;99.90;;;;;;5118014;28;20470;-81
2022/11/17 09:13:15;;;;;;;2.57;1.00;;;11.10;99.90;;;;;;5113919;28;20451;-81
2022/11/17 09:15:42;;;;;;;4.53;1.27;;;11.20;99.90;;;;;;5098237;28;20446;-82
2022/11/17 09:18:10;;;;;;;5.10;1.33;;;11.10;99.90;;;;;;5099479;28;20454;-81
2022/11/17 09:20:37;;;;;;;2.90;1.10;;;11.20;99.90;;;;;;5121272;28;20543;-82
2022/11/17 09:23:04;;;;;;;3.20;1.10;;;11.20;99.90;;;;;;5117171;28;20460;-82
2022/11/17 09:25:31;;;;;;;4.00;1.30;;;11.20;99.90;;;;;;5099424;28;20571;-81
2022/11/17 09:27:58;;;;;;;3.87;1.37;;;11.20;99.90;;;;;;5098944;28;20471;-82
2022/11/17 09:30:25;;;;;;;2.60;1.20;;;11.20;99.90;;;;;;5099264;28;20504;-82
2022/11/17 09:32:52;;;;;;;2.77;1.27;;;11.30;99.90;;;;;;5099742;28;20484;-81
2022/11/17 09:35:21;;;;;;;6.43;1.50;;;11.50;99.90;;;;;;5117425;28;21110;-81
2022/11/17 09:37:48;;;;;;;4.37;1.40;;;11.60;99.90;;;;;;5118851;28;20449;-82
2022/11/17 09:40:18;;;;;;;4.40;1.53;;;11.70;99.90;;;;;;5100793;28;20558;-82
2022/11/17 09:42:45;;;;;;;3.40;1.57;;;11.70;99.90;;;;;;5098835;28;20486;-82
2022/11/17 09:45:21;;;;;;;2.63;1.10;;;11.80;99.90;;;;;;5100713;28;20562;-81
2022/11/17 09:47:54;;;;;;;3.33;1.40;;;11.80;99.90;;;;;;5101190;28;20444;-81
2022/11/17 09:50:27;;;;;;;2.47;1.27;;;11.80;99.90;;;;;;5120706;28;20504;-81
2022/11/17 09:53:01;;;;;;;2.63;1.87;;;12.00;99.90;;;;;;5107041;28;20538;-82
2022/11/17 09:55:31;;;;;;;2.73;1.20;;;12.00;99.90;;;;;;5099271;28;21027;-81
2022/11/17 09:58:07;;;;;;;3.40;1.13;;;12.00;99.90;;;;;;5115862;28;20509;-84
2022/11/17 10:00:35;;;;;;;5.47;1.37;;;12.00;99.90;;;;;;5120531;28;20528;-82
2022/11/17 10:03:03;;;;;;;4.03;1.37;;;11.90;99.90;;;;;;5102510;28;20478;-82
2022/11/17 10:05:34;;;;;;;2.90;1.30;;;11.90;99.90;;;;;;5099661;28;20505;-82
2022/11/17 10:08:07;;;;;;;3.57;1.30;;;11.90;99.90;;;;;;5115781;28;20460;-83
2022/11/17 10:10:39;;;;;;;4.80;1.20;;;12.00;99.90;;;;;;5118478;28;20470;-83
2022/11/17 10:13:14;;;;;;;4.03;1.10;;;11.90;99.90;;;;;;5104034;28;20517;-83
2022/11/17 10:15:46;;;;;;;3.83;1.40;;;11.90;99.90;;;;;;5101658;28;20473;-83
2022/11/17 10:18:15;;;;;;;3.07;1.00;;;11.90;99.90;;;;;;5117456;28;20514;-83
2022/11/17 10:20:44;;;;;;;2.70;1.27;;;12.00;99.90;;;;;;5121879;28;21038;-83
2022/11/17 10:23:14;;;;;;;3.77;1.37;;;12.10;99.90;;;;;;5120699;28;20475;-83
2022/11/17 10:25:43;;;;;;;2.97;1.13;;;12.00;99.90;;;;;;5121498;28;20547;-84
2022/11/17 10:28:24;;;;;;;2.40;1.20;;;12.10;99.90;;;;;;5103307;28;20514;-84
2022/11/17 10:30:58;;;;;;;2.80;1.30;;;12.10;99.90;;;;;;5101108;28;21072;-84
2022/11/17 10:33:47;;;;;;;2.03;0.87;;;12.20;99.90;;;;;;5119523;28;20490;-84
2022/11/17 10:36:22;;;;;;;3.10;0.90;;;12.20;99.90;;;;;;5134103;28;20439;-82
2022/11/17 10:38:54;;;;;;;3.83;1.30;;;12.20;99.90;;;;;;5109626;28;20526;-84
2022/11/17 10:41:25;;;;;;;2.37;0.93;;;12.10;99.90;;;;;;5104081;28;20564;-84
2022/11/17 10:43:58;;;;;;;3.40;1.10;;;12.10;99.90;;;;;;5124562;28;20514;-83
2022/11/17 10:46:25;;;;;;;2.90;1.00;;;12.10;99.90;;;;;;5118946;28;20431;-83
2022/11/17 10:48:59;;;;;;;2.00;0.97;;;12.10;99.90;;;;;;5100125;28;20473;-83
2022/11/17 10:51:30;;;;;;;2.23;0.90;;;12.10;99.90;;;;;;5121601;28;20505;-83
2022/11/17 10:54:03;;;;;;;5.43;1.43;;;12.10;99.90;;;;;;5121061;28;20518;-82
2022/11/17 10:56:54;;;;;;;2.90;1.13;;;12.20;99.90;;;;;;5124618;28;20454;-83
2022/11/17 10:59:28;;;;;;;3.30;1.10;;;12.30;99.90;;;;;;5106312;28;20502;-83
2022/11/17 11:01:55;;;;;;;3.30;1.13;;;12.40;99.90;;;;;;5102003;28;20509;-82
2022/11/17 11:04:30;;;;;;;4.67;1.10;;;12.60;99.90;;;;;;5119475;28;20506;-82
2022/11/17 11:07:10;;;;;;;2.10;0.90;;;12.70;99.90;;;;;;5122650;28;20707;-82
2022/11/17 11:09:42;;;;;;;3.17;1.20;;;12.80;99.90;;;;;;5104192;28;20539;-81
2022/11/17 11:12:14;;;;;;;2.33;0.90;;;12.90;99.90;;;;;;5102836;28;20442;-82
2022/11/17 11:14:47;;;;;;;1.90;1.00;;;13.20;99.90;;;;;;5119185;28;20522;-82
2022/11/17 11:17:16;;;;;;;2.23;0.93;;;13.30;99.90;;;;;;5102243;28;20817;-81
2022/11/17 11:19:47;;;;;;;3.23;0.77;;;13.20;99.90;;;;;;5122386;28;20452;-81
2022/11/17 11:22:36;;;;;;;4.03;0.90;;;13.20;99.90;;;;;;5119692;28;20447;-82
2022/11/17 11:25:17;;;;;;;2.90;0.83;;;13.10;99.90;;;;;;5100201;28;20492;-82
2022/11/17 11:27:57;;;;;;;3.27;1.40;;;13.10;99.90;;;;;;5101812;28;20873;-81
2022/11/17 11:30:23;;;;;;;3.50;1.00;;;13.00;99.90;;;;;;5102083;28;20463;-82
2022/11/17 11:33:03;;;;;;;2.70;1.00;;;13.10;99.90;;;;;;5102047;28;20450;-82
2022/11/17 11:36:05;;;;;;;4.20;1.07;;;13.10;99.90;;;;;;5102115;28;20530;-81
2022/11/17 11:39:04;;;;;;;3.00;0.97;;;13.00;99.90;;;;;;5099050;28;20457;-81
2022/11/17 11:41:53;;;;;;;1.60;0.70;;;12.90;99.90;;;;;;5096407;28;20487;-81
2022/11/17 11:44:35;;;;;;;1.90;0.90;;;13.00;99.90;;;;;;5102737;28;20520;-81
2022/11/17 11:47:15;;;;;;;2.83;1.03;;;13.00;99.90;;;;;;5102785;28;20449;-81
2022/11/17 11:49:49;;;;;;;3.90;1.07;;;13.60;99.90;;;;;;5096834;28;20447;-81
2022/11/17 11:52:20;;;;;;;2.30;1.00;;;14.80;99.90;;;;;;5109487;22;20874;-83
2022/11/17 11:54:52;;;;;;;2.00;0.80;;;15.20;99.90;;;;;;5078377;28;20894;-82
2022/11/17 11:57:25;;;;;;;2.20;1.00;;;14.90;99.90;;;;;;5078450;28;20546;-82
2022/11/17 11:59:56;;;;;;;2.00;1.00;;;14.60;99.90;;;;;;5078743;28;20433;-84
2022/11/17 12:02:31;;;;;;;2.67;0.83;;;14.30;99.90;;;;;;5093109;28;20892;-83
2022/11/17 12:05:12;;;;;;;1.70;1.00;;;14.00;99.90;;;;;;5098802;28;20577;-83
2022/11/17 12:07:46;;;;;;;3.63;1.00;;;13.80;99.90;;;;;;5081952;28;20482;-83
2022/11/17 12:10:19;;;;;;;4.03;1.10;;;13.60;99.90;;;;;;5078795;28;20430;-83
2022/11/17 12:12:48;;;;;;;3.30;1.00;;;13.40;99.90;;;;;;5096655;28;20494;-81
2022/11/17 12:15:35;;;;;;;4.13;1.00;;;13.30;99.90;;;;;;5084152;28;20446;-82
2022/11/17 12:18:05;;;;;;;2.63;0.80;;;13.20;99.90;;;;;;5077700;28;20456;-81
2022/11/17 12:20:54;;;;;;;2.37;0.90;;;13.10;99.90;;;;;;5078010;28;20467;-81
2022/11/17 12:23:37;;;;;;;5.40;1.10;;;13.10;99.90;;;;;;5075781;28;20451;-82
2022/11/17 12:26:05;;;;;;;3.67;1.30;;;13.10;99.90;;;;;;5097844;28;20484;-81
2022/11/17 12:28:35;;;;;;;3.20;0.87;;;13.10;99.90;;;;;;5097901;28;20440;-81
2022/11/17 12:31:03;;;;;;;2.10;0.90;;;13.30;99.90;;;;;;5097995;28;20469;-82
2022/11/17 12:34:07;;;;;;;3.93;1.10;;;13.40;99.90;;;;;;5098082;28;20533;-82
2022/11/17 12:36:35;;;;;;;3.00;1.20;;;13.30;99.90;;;;;;5097604;28;20539;-82
2022/11/17 12:39:05;;;;;;;2.10;0.80;;;13.30;99.90;;;;;;5098425;28;21028;-82
2022/11/17 12:42:04;;;;;;;2.10;0.90;;;13.30;99.90;;;;;;5096386;28;21004;-82
2022/11/17 12:44:56;;;;;;;1.80;0.70;;;13.50;99.90;;;;;;5081763;28;20466;-82
2022/11/17 12:47:24;;;;;;;3.03;0.90;;;13.60;99.90;;;;;;5077769;28;20521;-82
2022/11/17 12:50:07;;;;;;;2.83;0.87;;;13.50;99.90;;;;;;5077478;28;20514;-82
2022/11/17 12:52:44;;;;;;;3.83;1.00;;;13.60;99.90;;;;;;5077816;28;20477;-82
2022/11/17 12:55:17;;;;;;;2.10;0.90;;;13.40;99.90;;;;;;5077841;28;20519;-81
2022/11/17 12:57:48;;;;;;;3.53;1.07;;;13.40;99.90;;;;;;5079812;28;20457;-83
2022/11/17 13:00:19;;;;;;;2.80;0.90;;;13.40;99.90;;;;;;5077919;28;20462;-83
2022/11/17 13:02:58;;;;;;;3.17;1.00;;;13.40;99.90;;;;;;5078029;28;20549;-82
2022/11/17 13:05:27;;;;;;;3.33;0.80;;;13.40;99.90;;;;;;5077552;28;20489;-82
2022/11/17 13:08:10;;;;;;;3.00;1.07;;;13.30;99.90;;;;;;5077274;28;20459;-84
2022/11/17 13:10:37;;;;;;;1.60;0.70;;;13.10;99.90;;;;;;5080894;28;20806;-82
2022/11/17 13:13:12;;;;;;;2.43;0.90;;;13.10;99.90;;;;;;5098113;28;20536;-83
2022/11/17 13:15:42;;;;;;;2.87;1.13;;;12.90;99.90;;;;;;5098280;28;20544;-83
2022/11/17 13:18:15;;;;;;;6.03;1.00;;;12.90;99.90;;;;;;5100194;28;20452;-81
2022/11/17 13:20:46;;;;;;;2.30;0.70;;;12.80;99.90;;;;;;5106061;28;20541;-83
2022/11/17 13:23:20;;;;;;;4.27;1.17;;;12.90;99.90;;;;;;5104190;28;20509;-82
2022/11/17 13:25:47;;;;;;;1.80;0.87;;;12.90;99.90;;;;;;5096697;28;20849;-82
2022/11/17 13:28:30;;;;;;;2.37;1.00;;;12.80;99.90;;;;;;5097328;28;20457;-83
2022/11/17 13:31:00;;;;;;;2.93;1.00;;;12.80;99.90;;;;;;5097123;28;20497;-83